createdAt,value
2019-06-20T00:01:16.225Z,5.72
2019-06-20T00:03:44.840Z,5.92
2019-06-20T00:06:13.409Z,6.60
2019-06-20T00:08:41.988Z,6.10
2019-06-20T00:11:10.597Z,6.37
2019-06-20T00:13:39.161Z,6.30
2019-06-20T00:16:07.745Z,5.60
2019-06-20T00:18:36.355Z,6.45
2019-06-20T00:21:04.950Z,5.85
2019-06-20T00:23:33.539Z,6.17
2019-06-20T00:26:02.141Z,5.75
2019-06-20T00:28:30.745Z,6.50
2019-06-20T00:30:59.397Z,6.10
2019-06-20T00:33:27.985Z,6.40
2019-06-20T00:35:56.563Z,6.35
2019-06-20T00:38:25.157Z,7.17
2019-06-20T00:40:53.742Z,7.60
2019-06-20T00:43:22.332Z,6.50
2019-06-20T00:45:50.944Z,6.70
2019-06-20T00:48:19.518Z,6.97
2019-06-20T00:50:48.109Z,6.72
2019-06-20T00:53:16.685Z,7.58
2019-06-20T00:55:45.253Z,7.78
2019-06-20T00:58:13.867Z,7.50
2019-06-20T01:00:42.621Z,7.83
2019-06-20T01:03:11.194Z,8.05
2019-06-20T01:05:39.790Z,8.70
2019-06-20T01:08:08.396Z,9.18
2019-06-20T01:10:36.969Z,8.83
2019-06-20T01:13:05.589Z,10.15
2019-06-20T01:15:34.154Z,8.93
2019-06-20T01:18:02.919Z,8.60
2019-06-20T01:20:31.582Z,8.45
2019-06-20T01:23:00.207Z,6.95
2019-06-20T01:25:37.774Z,7.17
2019-06-20T01:28:06.980Z,6.58
2019-06-20T01:30:35.635Z,6.30
2019-06-20T01:33:04.937Z,6.25
2019-06-20T01:35:33.525Z,6.35
2019-06-20T01:38:02.566Z,6.12
2019-06-20T01:40:31.168Z,6.33
2019-06-20T01:42:59.722Z,5.85
2019-06-20T01:45:28.354Z,5.60
2019-06-20T01:47:56.919Z,5.30
2019-06-20T01:50:25.652Z,5.80
2019-06-20T01:52:54.232Z,5.30
2019-06-20T01:55:22.799Z,5.58
2019-06-20T01:57:51.405Z,6.15
2019-06-20T02:00:25.590Z,5.42
2019-06-20T02:02:54.199Z,5.17
2019-06-20T02:05:22.898Z,5.22
2019-06-20T02:07:51.501Z,5.90
2019-06-20T02:10:20.182Z,6.30
2019-06-20T02:12:48.773Z,5.90
2019-06-20T02:15:17.453Z,5.35
2019-06-20T02:17:46.029Z,5.50
2019-06-20T02:20:32.754Z,5.40
2019-06-20T02:23:01.363Z,7.10
2019-06-20T02:25:29.943Z,5.72
2019-06-20T02:27:58.516Z,5.03
2019-06-20T02:30:27.629Z,5.22
2019-06-20T02:32:56.129Z,5.92
2019-06-20T02:35:24.774Z,5.90
2019-06-20T02:37:53.634Z,5.42
2019-06-20T02:40:22.679Z,5.50
2019-06-20T02:42:51.273Z,6.08
2019-06-20T02:45:19.992Z,5.80
2019-06-20T02:47:48.599Z,5.83
2019-06-20T02:50:18.034Z,5.75
2019-06-20T02:52:46.738Z,5.28
2019-06-20T02:55:15.685Z,5.67
2019-06-20T02:57:44.304Z,6.03
2019-06-20T03:00:13.413Z,5.55
2019-06-20T03:02:42.095Z,5.50
2019-06-20T03:05:11.026Z,6.00
2019-06-20T03:07:39.616Z,5.22
2019-06-20T03:10:08.549Z,5.30
2019-06-20T03:12:37.137Z,5.47
2019-06-20T03:15:06.702Z,5.50
2019-06-20T03:17:35.268Z,4.80
2019-06-20T03:20:05.381Z,5.30
2019-06-20T03:22:33.970Z,5.40
2019-06-20T03:25:02.557Z,5.05
2019-06-20T03:27:31.149Z,4.67
2019-06-20T03:29:59.740Z,4.55
2019-06-20T03:32:28.308Z,4.97
2019-06-20T03:34:56.905Z,4.12
2019-06-20T03:37:25.508Z,4.85
2019-06-20T03:39:54.094Z,4.15
2019-06-20T03:42:22.669Z,3.95
2019-06-20T03:45:01.739Z,4.03
2019-06-20T03:47:21.497Z,3.70
2019-06-20T03:49:50.065Z,3.55
2019-06-20T03:52:18.649Z,4.05
2019-06-20T03:54:47.252Z,3.65
2019-06-20T03:57:15.832Z,3.15
2019-06-20T03:59:44.415Z,3.33
2019-06-20T04:02:12.982Z,3.83
2019-06-20T04:04:41.670Z,4.17
2019-06-20T04:07:10.264Z,2.95
2019-06-20T04:09:38.829Z,3.58
2019-06-20T04:12:07.437Z,3.45
2019-06-20T04:14:36.015Z,3.80
2019-06-20T04:17:04.601Z,4.10
2019-06-20T04:19:33.188Z,3.72
2019-06-20T04:22:01.769Z,3.58
2019-06-20T04:24:30.362Z,3.50
2019-06-20T04:26:58.933Z,3.35
2019-06-20T04:29:27.498Z,3.60
2019-06-20T04:31:56.092Z,3.22
2019-06-20T04:34:24.644Z,3.75
2019-06-20T04:36:53.250Z,3.45
2019-06-20T04:39:21.832Z,3.35
2019-06-20T04:41:50.423Z,3.20
2019-06-20T04:44:19.016Z,3.50
2019-06-20T04:46:52.121Z,3.33
2019-06-20T04:49:20.729Z,3.20
2019-06-20T04:51:49.315Z,3.47
2019-06-20T04:54:17.873Z,4.15
2019-06-20T04:56:46.477Z,3.22
2019-06-20T04:59:15.042Z,3.30
2019-06-20T05:01:43.606Z,3.30
2019-06-20T05:04:12.188Z,3.70
2019-06-20T05:06:43.964Z,3.70
2019-06-20T05:09:12.540Z,3.37
2019-06-20T05:11:41.127Z,3.52
2019-06-20T05:14:09.728Z,3.67
2019-06-20T05:16:38.335Z,3.45
2019-06-20T05:19:06.893Z,3.87
2019-06-20T05:21:35.510Z,3.60
2019-06-20T05:24:04.111Z,3.92
2019-06-20T05:26:32.675Z,3.70
2019-06-20T05:29:01.241Z,3.92
2019-06-20T05:31:29.869Z,3.42
2019-06-20T05:33:58.440Z,4.25
2019-06-20T05:36:26.996Z,3.80
2019-06-20T05:38:55.605Z,4.95
2019-06-20T05:41:24.202Z,3.92
2019-06-20T05:43:52.781Z,3.90
2019-06-20T05:46:21.404Z,4.25
2019-06-20T05:48:49.978Z,3.75
2019-06-20T05:51:18.557Z,4.15
2019-06-20T05:53:47.190Z,4.40
2019-06-20T05:56:15.792Z,4.08
2019-06-20T05:58:44.367Z,4.42
2019-06-20T06:01:12.979Z,3.70
2019-06-20T06:03:41.565Z,4.45
2019-06-20T06:06:10.145Z,3.42
2019-06-20T06:08:38.737Z,3.87
2019-06-20T06:11:07.313Z,4.75
2019-06-20T06:13:35.937Z,3.92
2019-06-20T06:16:04.580Z,4.15
2019-06-20T06:18:33.190Z,4.00
2019-06-20T06:21:01.787Z,4.12
2019-06-20T06:23:30.345Z,5.85
2019-06-20T06:25:58.947Z,5.42
2019-06-20T06:28:27.532Z,3.67
2019-06-20T06:30:56.148Z,4.60
2019-06-20T06:33:24.733Z,4.03
2019-06-20T06:35:53.299Z,4.20
2019-06-20T06:38:22.509Z,4.03
2019-06-20T06:40:51.166Z,3.72
2019-06-20T06:43:19.749Z,4.00
2019-06-20T06:45:48.329Z,4.17
2019-06-20T06:48:16.902Z,3.70
2019-06-20T06:50:45.524Z,3.90
2019-06-20T06:53:14.116Z,4.35
2019-06-20T06:55:42.696Z,4.05
2019-06-20T06:58:11.282Z,3.72
2019-06-20T07:00:39.854Z,4.30
2019-06-20T07:03:08.459Z,4.20
2019-06-20T07:05:37.060Z,4.15
2019-06-20T07:08:05.630Z,4.72
2019-06-20T07:10:34.189Z,4.25
2019-06-20T07:13:02.811Z,3.80
2019-06-20T07:15:31.402Z,4.10
2019-06-20T07:17:59.957Z,4.20
2019-06-20T07:20:28.549Z,4.33
2019-06-20T07:22:57.167Z,3.72
2019-06-20T07:25:25.724Z,4.65
2019-06-20T07:27:54.327Z,5.37
2019-06-20T07:30:23.180Z,3.65
2019-06-20T07:32:51.799Z,3.35
2019-06-20T07:35:20.424Z,4.90
2019-06-20T07:37:49.071Z,3.98
2019-06-20T07:40:18.307Z,3.58
2019-06-20T07:42:46.864Z,3.60
2019-06-20T07:45:17.262Z,3.70
2019-06-20T07:47:45.865Z,4.12
2019-06-20T07:50:14.529Z,3.83
2019-06-20T07:52:51.822Z,3.72
2019-06-20T07:55:13.944Z,4.05
2019-06-20T07:57:42.563Z,3.72
2019-06-20T08:00:12.941Z,3.45
2019-06-20T08:02:41.966Z,3.60
2019-06-20T08:05:11.770Z,4.53
2019-06-20T08:07:40.386Z,4.15
2019-06-20T08:10:11.557Z,3.60
2019-06-20T08:12:40.156Z,3.75
2019-06-20T08:15:14.929Z,3.30
2019-06-20T08:17:40.002Z,3.72
2019-06-20T08:20:10.997Z,3.67
2019-06-20T08:22:39.939Z,4.33
2019-06-20T08:25:09.361Z,3.62
2019-06-20T08:27:53.914Z,3.47
2019-06-20T08:30:33.877Z,3.58
2019-06-20T08:33:08.736Z,3.77
2019-06-20T08:35:33.233Z,3.52
2019-06-20T08:38:03.454Z,3.50
2019-06-20T08:40:36.257Z,3.77
2019-06-20T08:43:06.257Z,3.50
2019-06-20T08:45:37.807Z,3.75
2019-06-20T08:48:07.484Z,3.45
2019-06-20T08:50:36.596Z,3.65
2019-06-20T08:53:06.435Z,3.40
2019-06-20T08:55:36.050Z,3.55
2019-06-20T08:58:05.639Z,3.70
2019-06-20T09:00:37.096Z,3.67
2019-06-20T09:03:06.664Z,4.17
2019-06-20T09:05:35.653Z,4.60
2019-06-20T09:08:05.943Z,5.28
2019-06-20T09:10:39.888Z,6.42
2019-06-20T09:13:10.081Z,4.70
2019-06-20T09:15:39.148Z,10.88
2019-06-20T09:18:08.950Z,4.92
2019-06-20T09:20:38.016Z,5.90
2019-06-20T09:23:08.037Z,8.90
2019-06-20T09:25:36.900Z,7.00
2019-06-20T09:28:06.516Z,4.50
2019-06-20T09:30:37.561Z,5.45
2019-06-20T09:33:06.421Z,7.60
2019-06-20T09:35:35.389Z,5.33
2019-06-20T09:38:04.386Z,5.90
2019-06-20T09:40:32.978Z,5.80
2019-06-20T09:43:02.772Z,5.95
2019-06-20T09:45:31.686Z,4.60
2019-06-20T09:48:00.213Z,4.60
2019-06-20T09:50:28.777Z,4.87
2019-06-20T09:52:58.382Z,5.55
2019-06-20T09:55:27.180Z,4.00
2019-06-20T09:57:55.972Z,3.83
2019-06-20T10:00:27.497Z,4.80
2019-06-20T10:02:57.746Z,4.42
2019-06-20T10:05:26.351Z,4.28
2019-06-20T10:07:56.458Z,4.05
2019-06-20T10:10:29.595Z,4.22
2019-06-20T10:12:58.581Z,3.62
2019-06-20T10:15:29.584Z,3.50
2019-06-20T10:17:58.809Z,3.98
2019-06-20T10:20:27.809Z,4.30
2019-06-20T10:22:57.456Z,3.95
2019-06-20T10:25:26.724Z,3.58
2019-06-20T10:27:55.406Z,3.92
2019-06-20T10:30:25.635Z,3.50
2019-06-20T10:32:54.224Z,3.77
2019-06-20T10:35:23.264Z,3.83
2019-06-20T10:37:53.002Z,4.05
2019-06-20T10:40:23.627Z,3.37
2019-06-20T10:42:53.009Z,3.42
2019-06-20T10:45:24.847Z,3.45
2019-06-20T10:47:54.286Z,3.72
2019-06-20T10:50:23.942Z,3.90
2019-06-20T10:52:53.570Z,3.80
2019-06-20T10:55:22.517Z,4.12
2019-06-20T10:57:51.928Z,3.90
2019-06-20T11:00:30.843Z,3.70
2019-06-20T11:02:54.243Z,3.77
2019-06-20T11:05:23.160Z,3.72
2019-06-20T11:07:51.725Z,3.67
2019-06-20T11:10:20.733Z,3.92
2019-06-20T11:12:54.893Z,3.67
2019-06-20T11:15:20.769Z,4.17
2019-06-20T11:17:49.356Z,3.77
2019-06-20T11:20:19.473Z,4.40
2019-06-20T11:22:48.141Z,4.17
2019-06-20T11:25:19.332Z,3.70
2019-06-20T11:27:47.717Z,4.37
2019-06-20T11:30:25.461Z,3.75
2019-06-20T11:32:54.066Z,3.62
2019-06-20T11:35:22.656Z,4.05
2019-06-20T11:37:51.360Z,4.03
2019-06-20T11:40:20.781Z,3.85
2019-06-20T11:42:49.381Z,4.30
2019-06-20T11:45:18.629Z,3.70
2019-06-20T11:47:47.500Z,3.90
2019-06-20T11:50:18.013Z,3.55
2019-06-20T11:52:46.629Z,4.40
2019-06-20T11:55:15.918Z,3.83
2019-06-20T11:57:44.640Z,3.65
2019-06-20T12:00:14.223Z,4.40
2019-06-20T12:02:44.185Z,3.77
2019-06-20T12:05:13.777Z,3.98
2019-06-20T12:07:43.648Z,3.80
2019-06-20T12:10:12.925Z,3.70
2019-06-20T12:12:42.598Z,4.05
2019-06-20T12:15:12.850Z,3.75
2019-06-20T12:17:43.131Z,3.72
2019-06-20T12:20:12.297Z,3.98
2019-06-20T12:22:41.716Z,4.12
2019-06-20T12:25:11.632Z,4.47
2019-06-20T12:27:40.808Z,4.20
2019-06-20T12:30:12.473Z,3.83
2019-06-20T12:32:42.385Z,4.28
2019-06-20T12:35:12.642Z,4.15
2019-06-20T12:37:42.527Z,4.20
2019-06-20T12:40:12.423Z,4.33
2019-06-20T12:42:42.736Z,4.22
2019-06-20T12:45:13.025Z,4.12
2019-06-20T12:47:41.915Z,3.65
2019-06-20T12:50:11.255Z,4.25
2019-06-20T12:52:41.235Z,4.17
2019-06-20T12:55:11.265Z,3.90
2019-06-20T12:57:40.434Z,4.15
2019-06-20T13:00:12.206Z,4.40
2019-06-20T13:02:42.027Z,4.28
2019-06-20T13:05:14.040Z,5.05
2019-06-20T13:07:44.145Z,4.55
2019-06-20T13:10:14.813Z,6.10
2019-06-20T13:12:44.323Z,5.33
2019-06-20T13:15:13.685Z,4.72
2019-06-20T13:17:43.612Z,3.70
2019-06-20T13:20:13.145Z,3.90
2019-06-20T13:22:42.881Z,4.47
2019-06-20T13:25:13.918Z,4.30
2019-06-20T13:27:43.439Z,4.00
2019-06-20T13:30:12.936Z,4.30
2019-06-20T13:32:43.112Z,3.90
2019-06-20T13:35:12.561Z,4.37
2019-06-20T13:37:42.061Z,4.22
2019-06-20T13:40:12.507Z,4.50
2019-06-20T13:42:42.659Z,4.50
2019-06-20T13:45:20.700Z,4.30
2019-06-20T13:47:49.924Z,4.60
2019-06-20T13:50:19.706Z,4.65
2019-06-20T13:52:49.735Z,4.67
2019-06-20T13:55:19.057Z,4.53
2019-06-20T13:57:49.023Z,4.00
2019-06-20T14:00:19.975Z,4.20
2019-06-20T14:02:49.017Z,4.62
2019-06-20T14:05:18.676Z,4.70
2019-06-20T14:07:51.396Z,4.42
2019-06-20T14:10:18.339Z,4.78
2019-06-20T14:12:46.985Z,4.83
2019-06-20T14:15:17.037Z,4.33
2019-06-20T14:17:47.029Z,4.28
2019-06-20T14:20:16.373Z,5.45
2019-06-20T14:22:45.222Z,5.33
2019-06-20T14:25:14.441Z,5.03
2019-06-20T14:27:43.996Z,5.50
2019-06-20T14:30:13.817Z,6.20
2019-06-20T14:32:43.172Z,5.67
2019-06-20T14:35:12.850Z,6.35
2019-06-20T14:37:43.341Z,6.28
2019-06-20T14:40:12.400Z,5.85
2019-06-20T14:42:41.043Z,5.30
2019-06-20T14:45:11.249Z,5.25
2019-06-20T14:47:39.857Z,5.70
2019-06-20T14:50:11.309Z,5.65
2019-06-20T14:52:39.901Z,5.92
2019-06-20T14:55:09.060Z,6.22
2019-06-20T14:57:37.654Z,5.60
2019-06-20T15:00:12.119Z,5.37
2019-06-20T15:02:40.757Z,4.67
2019-06-20T15:05:16.722Z,5.10
2019-06-20T15:07:47.098Z,5.12
2019-06-20T15:10:17.547Z,5.28
2019-06-20T15:12:47.938Z,4.92
2019-06-20T15:15:17.059Z,4.60
2019-06-20T15:17:47.456Z,5.15
2019-06-20T15:20:17.873Z,4.50
2019-06-20T15:22:47.419Z,4.80
2019-06-20T15:25:16.855Z,4.75
2019-06-20T15:27:47.225Z,4.85
2019-06-20T15:30:17.407Z,4.70
2019-06-20T15:33:01.106Z,4.55
2019-06-20T15:35:17.277Z,4.65
2019-06-20T15:37:46.708Z,4.80
2019-06-20T15:40:16.209Z,5.35
2019-06-20T15:42:44.778Z,4.80
2019-06-20T15:45:13.533Z,6.75
2019-06-20T15:47:42.135Z,4.97
2019-06-20T15:50:11.060Z,4.78
2019-06-20T15:52:40.829Z,4.75
2019-06-20T15:55:10.300Z,5.05
2019-06-20T15:57:38.946Z,5.28
2019-06-20T16:00:09.458Z,5.20
2019-06-20T16:02:38.042Z,4.58
2019-06-20T16:05:09.972Z,4.78
2019-06-20T16:07:38.594Z,4.90
2019-06-20T16:10:09.095Z,5.10
2019-06-20T16:12:37.689Z,5.37
2019-06-20T16:15:09.345Z,5.42
2019-06-20T16:17:37.914Z,5.42
2019-06-20T16:20:08.458Z,5.15
2019-06-20T16:22:37.252Z,5.37
2019-06-20T16:25:08.870Z,5.28
2019-06-20T16:27:37.561Z,4.78
2019-06-20T16:30:07.852Z,5.40
2019-06-20T16:32:37.006Z,5.03
2019-06-20T16:35:07.537Z,5.20
2019-06-20T16:37:36.217Z,6.08
2019-06-20T16:40:09.537Z,5.55
2019-06-20T16:42:38.097Z,5.62
2019-06-20T16:45:08.445Z,6.03
2019-06-20T16:47:37.091Z,6.28
2019-06-20T16:50:09.252Z,5.72
2019-06-20T16:52:37.927Z,5.05
2019-06-20T16:55:07.665Z,5.60
2019-06-20T16:57:36.233Z,5.83
2019-06-20T17:00:10.125Z,6.50
2019-06-20T17:02:38.790Z,5.90
2019-06-20T17:05:08.490Z,5.90
2019-06-20T17:07:37.133Z,5.90
2019-06-20T17:10:06.989Z,7.20
2019-06-20T17:12:35.592Z,7.12
2019-06-20T17:15:05.983Z,5.80
2019-06-20T17:17:34.544Z,5.85
2019-06-20T17:20:03.895Z,5.90
2019-06-20T17:22:32.482Z,5.72
2019-06-20T17:25:01.090Z,6.92
2019-06-20T17:27:29.746Z,5.92
2019-06-20T17:29:58.425Z,6.03
2019-06-20T17:32:26.983Z,6.47
2019-06-20T17:34:55.609Z,8.08
2019-06-20T17:37:24.245Z,6.15
2019-06-20T17:39:53.631Z,7.28
2019-06-20T17:42:22.206Z,7.20
2019-06-20T17:44:50.812Z,7.33
2019-06-20T17:47:19.386Z,7.37
2019-06-20T17:49:48.124Z,6.42
2019-06-20T17:52:16.709Z,6.78
2019-06-20T17:54:45.282Z,6.47
2019-06-20T17:57:13.868Z,6.83
2019-06-20T17:59:42.444Z,8.53
2019-06-20T18:02:11.049Z,9.38
2019-06-20T18:04:39.699Z,9.40
2019-06-20T18:07:08.309Z,9.65
2019-06-20T18:09:36.906Z,10.08
2019-06-20T18:12:05.598Z,10.30
2019-06-20T18:14:34.335Z,9.48
2019-06-20T18:17:02.975Z,9.50
2019-06-20T18:19:31.542Z,9.83
2019-06-20T18:22:00.135Z,9.80
2019-06-20T18:24:28.737Z,10.50
2019-06-20T18:26:57.296Z,9.43
2019-06-20T18:29:25.908Z,9.03
2019-06-20T18:31:54.568Z,10.68
2019-06-20T18:34:30.046Z,9.28
2019-06-20T18:36:53.431Z,9.60
2019-06-20T18:39:21.978Z,7.65
2019-06-20T18:41:50.598Z,8.10
2019-06-20T18:44:19.186Z,8.20
2019-06-20T18:46:47.750Z,8.50
2019-06-20T18:49:16.363Z,9.70
2019-06-20T18:51:44.948Z,10.05
2019-06-20T18:54:13.541Z,11.30
2019-06-20T18:56:42.181Z,10.20
2019-06-20T18:59:10.821Z,10.00
2019-06-20T19:01:39.410Z,11.12
2019-06-20T19:04:08.093Z,9.33
2019-06-20T19:06:36.708Z,9.28
2019-06-20T19:09:09.305Z,9.10
2019-06-20T19:11:37.989Z,8.70
2019-06-20T19:14:06.664Z,8.50
2019-06-20T19:16:35.244Z,7.83
2019-06-20T19:19:04.125Z,7.30
2019-06-20T19:21:32.713Z,7.28
2019-06-20T19:24:01.330Z,8.43
2019-06-20T19:26:29.922Z,7.85
2019-06-20T19:28:58.525Z,9.55
2019-06-20T19:31:27.156Z,8.70
2019-06-20T19:33:55.733Z,6.70
2019-06-20T19:36:24.313Z,7.20
2019-06-20T19:38:52.960Z,6.53
2019-06-20T19:41:21.523Z,8.58
2019-06-20T19:43:50.138Z,6.20
2019-06-20T19:46:18.717Z,6.05
2019-06-20T19:48:47.292Z,6.92
2019-06-20T19:51:15.899Z,6.55
2019-06-20T19:53:46.009Z,5.65
2019-06-20T19:56:14.771Z,6.28
2019-06-20T19:58:43.333Z,6.90
2019-06-20T20:01:11.917Z,6.45
2019-06-20T20:03:40.506Z,6.42
2019-06-20T20:06:09.445Z,6.53
2019-06-20T20:08:38.041Z,6.08
2019-06-20T20:11:06.637Z,6.70
2019-06-20T20:13:35.196Z,7.30
2019-06-20T20:16:03.809Z,7.58
2019-06-20T20:18:32.408Z,9.83
2019-06-20T20:21:00.981Z,8.38
2019-06-20T20:23:29.593Z,8.38
2019-06-20T20:25:58.180Z,8.53
2019-06-20T20:28:26.759Z,7.15
2019-06-20T20:30:55.380Z,7.10
2019-06-20T20:33:24.220Z,8.23
2019-06-20T20:35:52.791Z,8.48
2019-06-20T20:38:21.382Z,8.20
2019-06-20T20:40:49.985Z,6.10
2019-06-20T20:43:18.634Z,6.00
2019-06-20T20:45:47.269Z,5.67
2019-06-20T20:48:15.861Z,6.50
2019-06-20T20:50:44.421Z,5.90
2019-06-20T20:53:13.028Z,5.92
2019-06-20T20:55:41.596Z,5.50
2019-06-20T20:58:10.157Z,6.15
2019-06-20T21:00:50.765Z,5.80
2019-06-20T21:03:19.361Z,5.53
2019-06-20T21:05:51.759Z,5.75
2019-06-20T21:08:18.172Z,6.53
2019-06-20T21:10:46.789Z,6.40
2019-06-20T21:13:15.386Z,5.85
2019-06-20T21:15:43.932Z,6.10
2019-06-20T21:18:12.529Z,5.37
2019-06-20T21:20:41.109Z,6.05
2019-06-20T21:23:09.676Z,6.62
2019-06-20T21:25:38.294Z,6.33
2019-06-20T21:28:06.873Z,6.78
2019-06-20T21:30:35.469Z,6.20
2019-06-20T21:33:04.037Z,6.08
2019-06-20T21:35:32.653Z,6.37
2019-06-20T21:38:01.213Z,6.15
2019-06-20T21:40:29.838Z,6.22
2019-06-20T21:42:58.492Z,7.08
2019-06-20T21:45:27.058Z,7.53
2019-06-20T21:47:55.651Z,9.55
2019-06-20T21:50:24.222Z,10.00
2019-06-20T21:52:52.941Z,9.40
2019-06-20T21:55:21.716Z,11.73
2019-06-20T21:57:50.306Z,8.73
2019-06-20T22:00:26.353Z,10.10
2019-06-20T22:02:54.969Z,8.40
2019-06-20T22:05:23.641Z,7.37
2019-06-20T22:07:52.350Z,7.15
2019-06-20T22:10:21.076Z,7.58
2019-06-20T22:12:49.657Z,7.92
2019-06-20T22:15:18.564Z,7.87
2019-06-20T22:17:47.194Z,8.48
2019-06-20T22:20:17.514Z,8.00
2019-06-20T22:22:46.106Z,8.03
2019-06-20T22:25:15.028Z,7.83
2019-06-20T22:27:43.613Z,8.23
2019-06-20T22:30:13.057Z,7.35
2019-06-20T22:32:41.636Z,7.60
2019-06-20T22:35:10.843Z,7.53
2019-06-20T22:37:39.667Z,7.65
2019-06-20T22:40:10.044Z,7.72
2019-06-20T22:42:38.599Z,7.78
2019-06-20T22:45:08.460Z,7.03
2019-06-20T22:47:37.944Z,8.00
2019-06-20T22:50:07.670Z,7.40
2019-06-20T22:52:36.229Z,7.50
2019-06-20T22:55:06.188Z,7.62
2019-06-20T22:57:34.774Z,7.72
2019-06-20T23:00:05.442Z,7.40
2019-06-20T23:02:34.075Z,7.28
2019-06-20T23:05:02.637Z,6.85
2019-06-20T23:07:31.201Z,6.90
2019-06-20T23:10:09.939Z,7.47
2019-06-20T23:12:30.124Z,7.70
2019-06-20T23:14:58.708Z,7.40
2019-06-20T23:17:27.306Z,7.65
2019-06-20T23:19:55.916Z,7.10
2019-06-20T23:22:24.505Z,7.33
2019-06-20T23:24:53.070Z,7.65
2019-06-20T23:27:21.681Z,7.60
2019-06-20T23:29:50.321Z,8.20
2019-06-20T23:32:18.905Z,7.92
2019-06-20T23:34:47.501Z,7.80
2019-06-20T23:37:16.114Z,7.53
2019-06-20T23:39:44.674Z,8.53
2019-06-20T23:42:13.282Z,8.55
2019-06-20T23:44:41.841Z,7.37
2019-06-20T23:47:10.433Z,7.67
2019-06-20T23:49:39.001Z,9.28
2019-06-20T23:52:09.214Z,8.80
2019-06-20T23:54:37.821Z,8.63
2019-06-20T23:57:06.437Z,8.08
2019-06-20T23:59:35.010Z,8.70
